Time;durP1;ratioP1;P1;durP2;ratioP2;P2;SDS_P1;SDS_P2;PMS_P1;PMS_P2;Temp;Humidity;BMP_temperature;BMP_pressure;BME280_temperature;BME280_humidity;BME280_pressure;Samples;Min_cycle;Max_cycle;Signal;HPM_P1;HPM_P2
2024/03/12 00:00:59;;;;;;;40.63;5.82;;;12.00;92.10;;;;;;5066361;28;20488;-58
2024/03/12 00:03:27;;;;;;;43.75;6.47;;;12.00;92.10;;;;;;5066008;28;20033;-58
2024/03/12 00:05:55;;;;;;;29.73;5.57;;;12.00;92.10;;;;;;5032548;28;20025;-58
2024/03/12 00:08:21;;;;;;;36.53;5.97;;;12.00;92.10;;;;;;5048586;28;20032;-57
2024/03/12 00:10:47;;;;;;;47.00;5.60;;;11.90;92.10;;;;;;5048645;28;20034;-57
2024/03/12 00:13:12;;;;;;;40.70;5.40;;;11.90;92.20;;;;;;5048616;28;20047;-58
2024/03/12 00:15:38;;;;;;;36.60;6.05;;;11.90;92.20;;;;;;5048387;28;20182;-58
2024/03/12 00:18:05;;;;;;;34.67;5.22;;;11.90;92.20;;;;;;5048625;28;20017;-58
2024/03/12 00:20:33;;;;;;;33.63;6.95;;;11.90;92.20;;;;;;5066081;28;20037;-58
2024/03/12 00:22:59;;;;;;;34.63;5.72;;;11.80;92.20;;;;;;5066233;28;20201;-58
2024/03/12 00:25:25;;;;;;;27.83;5.07;;;11.80;92.20;;;;;;5065949;28;20037;-58
2024/03/12 00:27:50;;;;;;;38.83;5.68;;;11.80;92.20;;;;;;5048417;28;20498;-58
2024/03/12 00:30:18;;;;;;;18.55;4.28;;;11.80;92.20;;;;;;5066159;28;20053;-58
2024/03/12 00:32:47;;;;;;;30.92;5.53;;;11.80;92.20;;;;;;5048777;28;20077;-58
2024/03/12 00:35:13;;;;;;;25.75;5.30;;;11.80;92.30;;;;;;5048933;28;20100;-58
2024/03/12 00:37:38;;;;;;;30.27;5.65;;;11.70;92.20;;;;;;5048212;28;20096;-58
2024/03/12 00:40:11;;;;;;;29.33;4.88;;;11.70;92.20;;;;;;5031653;28;20498;-58
2024/03/12 00:42:40;;;;;;;29.23;4.60;;;11.70;92.30;;;;;;5066314;28;20104;-58
2024/03/12 00:45:11;;;;;;;28.08;4.38;;;11.70;92.60;;;;;;5048047;28;20036;-58
2024/03/12 00:47:43;;;;;;;30.40;4.18;;;11.70;92.30;;;;;;5066348;28;20387;-58
2024/03/12 00:50:11;;;;;;;27.75;4.70;;;11.70;92.30;;;;;;5048563;28;20468;-58
2024/03/12 00:52:40;;;;;;;24.73;4.65;;;11.60;92.30;;;;;;5031773;28;20037;-58
2024/03/12 00:55:09;;;;;;;15.35;4.32;;;11.70;92.30;;;;;;5065796;28;20032;-58
2024/03/12 00:57:38;;;;;;;20.00;4.13;;;11.60;92.30;;;;;;5048409;28;20021;-58
2024/03/12 01:00:16;;;;;;;23.90;3.92;;;11.60;92.30;;;;;;5066016;28;20368;-58
2024/03/12 01:02:49;;;;;;;17.95;3.92;;;11.60;92.30;;;;;;5066027;28;20094;-58
2024/03/12 01:05:18;;;;;;;27.05;4.00;;;11.60;92.30;;;;;;5048542;28;20040;-58
2024/03/12 01:07:45;;;;;;;13.93;3.85;;;11.60;92.40;;;;;;5048016;28;20029;-58
2024/03/12 01:10:10;;;;;;;16.55;3.70;;;11.60;92.40;;;;;;5067006;28;20040;-58
2024/03/12 01:12:39;;;;;;;22.65;4.55;;;11.60;92.40;;;;;;5051601;28;20085;-58
2024/03/12 01:15:08;;;;;;;16.88;4.30;;;11.60;92.40;;;;;;5051926;28;20104;-58
2024/03/12 01:17:37;;;;;;;23.15;4.32;;;11.60;92.40;;;;;;5052049;28;20025;-58
2024/03/12 01:20:05;;;;;;;24.08;3.72;;;11.50;92.40;;;;;;5051513;28;20036;-58
2024/03/12 01:22:30;;;;;;;14.45;3.40;;;11.50;92.40;;;;;;5051281;28;20096;-58
2024/03/12 01:24:57;;;;;;;16.13;3.10;;;11.50;92.40;;;;;;5051533;28;20358;-58
2024/03/12 01:27:23;;;;;;;21.88;3.35;;;11.50;92.40;;;;;;5051433;28;20028;-58
2024/03/12 01:29:49;;;;;;;16.80;3.35;;;11.50;92.40;;;;;;5034885;28;20025;-58
2024/03/12 01:32:15;;;;;;;17.45;4.13;;;11.50;92.50;;;;;;5051385;28;20021;-58
2024/03/12 01:34:43;;;;;;;22.35;3.40;;;11.50;92.50;;;;;;5051203;28;20021;-58
2024/03/12 01:37:08;;;;;;;16.23;3.05;;;11.40;92.50;;;;;;5051399;28;20021;-58
2024/03/12 01:39:38;;;;;;;20.63;3.45;;;11.40;92.80;;;;;;5051137;28;20044;-58
2024/03/12 01:42:05;;;;;;;14.80;2.95;;;11.40;92.50;;;;;;5051687;28;20056;-58
2024/03/12 01:44:34;;;;;;;17.45;3.33;;;11.40;92.50;;;;;;5051129;28;20079;-58
2024/03/12 01:47:04;;;;;;;14.82;3.20;;;11.40;92.50;;;;;;5050860;28;20021;-58
2024/03/12 01:49:30;;;;;;;14.80;3.17;;;11.40;92.50;;;;;;5050792;28;20059;-58
2024/03/12 01:51:56;;;;;;;16.48;3.25;;;11.40;92.50;;;;;;5034336;28;20092;-58
2024/03/12 01:54:21;;;;;;;18.38;3.25;;;11.30;92.50;;;;;;5068519;28;20427;-58
2024/03/12 01:56:47;;;;;;;15.10;2.60;;;11.30;92.50;;;;;;5068764;28;20018;-58
2024/03/12 01:59:15;;;;;;;15.02;3.25;;;11.30;92.60;;;;;;5068620;28;20036;-58
2024/03/12 02:01:41;;;;;;;15.40;3.03;;;11.30;92.60;;;;;;5050963;28;20033;-57
2024/03/12 02:04:07;;;;;;;18.73;2.90;;;11.30;92.60;;;;;;5050741;28;20047;-58
2024/03/12 02:06:32;;;;;;;17.73;3.38;;;11.30;92.60;;;;;;5050702;28;20045;-58
2024/03/12 02:09:03;;;;;;;10.98;2.53;;;11.30;92.60;;;;;;5050677;28;20029;-58
2024/03/12 02:11:28;;;;;;;11.32;2.70;;;11.30;92.60;;;;;;5051467;28;20033;-58
2024/03/12 02:13:54;;;;;;;10.25;2.63;;;11.30;92.60;;;;;;5051811;28;20037;-58
2024/03/12 02:16:20;;;;;;;16.15;2.40;;;11.20;92.60;;;;;;5052624;28;20472;-58
2024/03/12 02:18:46;;;;;;;15.95;2.63;;;11.20;92.60;;;;;;5051817;28;20468;-58
2024/03/12 02:21:11;;;;;;;7.28;2.45;;;11.20;92.60;;;;;;5049681;28;20048;-58
2024/03/12 02:23:41;;;;;;;14.50;2.58;;;11.20;92.60;;;;;;5050247;28;20081;-58
2024/03/12 02:26:07;;;;;;;7.53;1.85;;;11.20;92.70;;;;;;5050456;28;20074;-58
2024/03/12 02:28:33;;;;;;;11.82;2.10;;;11.20;92.70;;;;;;5050138;28;20017;-58
2024/03/12 02:30:59;;;;;;;11.95;2.78;;;11.20;92.70;;;;;;5067943;28;20089;-58
2024/03/12 02:33:25;;;;;;;8.02;2.10;;;11.20;92.70;;;;;;5050179;28;20028;-58
2024/03/12 02:35:51;;;;;;;8.30;2.53;;;11.10;92.70;;;;;;5033387;28;20056;-58
2024/03/12 02:38:18;;;;;;;12.98;2.22;;;11.20;92.80;;;;;;5050303;28;20022;-57
2024/03/12 02:40:45;;;;;;;15.35;1.88;;;11.10;92.70;;;;;;5050285;28;20035;-58
2024/03/12 02:43:11;;;;;;;12.05;2.90;;;11.10;92.80;;;;;;5067747;28;20025;-58
2024/03/12 02:45:38;;;;;;;9.15;2.38;;;11.10;92.80;;;;;;5050020;28;20048;-58
2024/03/12 02:48:04;;;;;;;11.43;2.20;;;11.10;92.80;;;;;;5050166;28;20532;-58
2024/03/12 02:50:30;;;;;;;8.77;2.35;;;11.10;92.80;;;;;;5049655;28;20044;-58
2024/03/12 02:52:56;;;;;;;7.57;2.13;;;11.10;92.80;;;;;;5067533;28;20083;-58
2024/03/12 02:55:22;;;;;;;6.00;1.92;;;11.10;92.80;;;;;;5049583;28;20033;-58
2024/03/12 02:57:48;;;;;;;11.88;2.50;;;11.10;92.80;;;;;;5049907;28;20064;-58
2024/03/12 03:00:14;;;;;;;16.60;2.30;;;11.00;92.80;;;;;;5049576;28;20094;-58
2024/03/12 03:02:40;;;;;;;8.10;1.80;;;11.00;92.80;;;;;;5067668;28;20086;-58
2024/03/12 03:05:06;;;;;;;12.23;2.70;;;11.10;92.80;;;;;;5049493;28;20040;-58
2024/03/12 03:07:36;;;;;;;5.75;2.00;;;11.00;92.80;;;;;;5049468;28;20025;-58
2024/03/12 03:10:02;;;;;;;7.95;2.10;;;11.00;92.80;;;;;;5068148;28;20097;-58
2024/03/12 03:12:28;;;;;;;5.78;2.00;;;11.00;92.90;;;;;;5067486;28;20021;-58
2024/03/12 03:14:54;;;;;;;7.28;1.67;;;10.90;92.90;;;;;;5049444;28;20048;-58
2024/03/12 03:17:20;;;;;;;8.13;2.03;;;11.00;92.90;;;;;;5049471;28;20036;-58
2024/03/12 03:19:48;;;;;;;6.97;1.92;;;10.90;92.90;;;;;;5049356;28;20033;-58
2024/03/12 03:22:14;;;;;;;7.72;2.15;;;10.90;92.90;;;;;;5067334;28;20047;-58
2024/03/12 03:24:40;;;;;;;4.78;1.90;;;10.90;93.00;;;;;;5049098;28;20044;-58
2024/03/12 03:27:07;;;;;;;7.60;1.70;;;10.90;92.90;;;;;;5049269;28;20021;-58
2024/03/12 03:29:33;;;;;;;6.35;1.67;;;10.90;93.00;;;;;;5067130;28;20492;-58
2024/03/12 03:31:59;;;;;;;7.88;1.90;;;10.90;93.00;;;;;;5049548;28;20117;-58
2024/03/12 03:34:28;;;;;;;7.60;2.20;;;10.90;93.00;;;;;;5067218;28;20357;-58
2024/03/12 03:36:57;;;;;;;6.00;1.75;;;10.80;93.00;;;;;;5048797;28;20058;-58
2024/03/12 03:39:26;;;;;;;6.97;1.95;;;10.80;93.00;;;;;;5049042;28;20040;-58
2024/03/12 03:41:52;;;;;;;9.00;2.22;;;10.80;93.00;;;;;;5049320;28;20025;-58
2024/03/12 03:44:18;;;;;;;6.65;1.80;;;10.80;93.00;;;;;;5048780;28;20471;-58
2024/03/12 03:46:44;;;;;;;8.98;1.90;;;10.80;93.00;;;;;;5048747;28;20035;-58
2024/03/12 03:49:10;;;;;;;3.92;1.77;;;10.80;93.00;;;;;;5048746;28;20056;-58
2024/03/12 03:51:36;;;;;;;10.60;1.90;;;10.80;93.00;;;;;;5066406;28;20052;-58
2024/03/12 03:54:02;;;;;;;3.72;1.63;;;10.80;93.00;;;;;;5048688;28;20108;-58
2024/03/12 03:56:30;;;;;;;8.30;1.60;;;10.70;93.00;;;;;;5048691;28;20036;-58
2024/03/12 03:59:01;;;;;;;5.10;1.60;;;10.70;93.00;;;;;;5066567;28;20029;-58
2024/03/12 04:01:28;;;;;;;6.35;1.85;;;10.70;93.30;;;;;;5066475;28;20036;-58
2024/03/12 04:03:55;;;;;;;9.98;1.92;;;10.70;93.10;;;;;;5048682;28;20041;-58
2024/03/12 04:06:21;;;;;;;6.88;1.50;;;10.70;93.10;;;;;;5048737;28;20080;-57
2024/03/12 04:08:54;;;;;;;5.63;2.22;;;10.70;93.10;;;;;;5048572;28;20040;-57
2024/03/12 04:11:21;;;;;;;9.30;1.73;;;10.60;93.10;;;;;;5048923;28;20029;-57
2024/03/12 04:13:52;;;;;;;5.70;1.80;;;10.70;93.10;;;;;;5048437;28;20475;-57
2024/03/12 04:16:18;;;;;;;4.40;1.77;;;10.60;93.40;;;;;;5049018;28;20279;-57
2024/03/12 04:18:44;;;;;;;7.65;1.92;;;10.60;93.10;;;;;;5048436;28;20419;-57
2024/03/12 04:21:13;;;;;;;5.03;1.60;;;10.60;93.20;;;;;;5048221;28;20032;-57
2024/03/12 04:23:39;;;;;;;5.55;1.45;;;10.60;93.20;;;;;;5048971;28;20060;-57
2024/03/12 04:26:05;;;;;;;3.58;1.40;;;10.60;93.20;;;;;;5048394;28;20024;-57
2024/03/12 04:28:30;;;;;;;8.32;1.73;;;10.50;93.20;;;;;;5066072;28;20021;-57
2024/03/12 04:30:56;;;;;;;5.45;2.45;;;10.50;93.20;;;;;;5066119;28;20029;-57
2024/03/12 04:33:24;;;;;;;4.55;1.60;;;10.50;93.20;;;;;;5048205;28;20043;-57
2024/03/12 04:35:50;;;;;;;5.82;1.77;;;10.50;93.20;;;;;;5048376;28;20045;-57
2024/03/12 04:38:18;;;;;;;6.38;1.50;;;10.50;93.20;;;;;;5066253;28;20499;-57
2024/03/12 04:40:47;;;;;;;2.85;1.27;;;10.50;93.20;;;;;;5048709;28;20033;-57
2024/03/12 04:43:13;;;;;;;6.75;1.63;;;10.50;93.20;;;;;;5066282;28;20035;-58
2024/03/12 04:45:40;;;;;;;2.40;1.30;;;10.50;93.30;;;;;;5050672;28;20033;-58
2024/03/12 04:48:07;;;;;;;5.40;1.60;;;10.40;93.20;;;;;;5070108;28;20044;-58
2024/03/12 04:50:33;;;;;;;4.22;1.50;;;10.40;93.30;;;;;;5051846;28;20040;-58
2024/03/12 04:52:58;;;;;;;4.18;1.42;;;10.40;93.30;;;;;;5069693;28;20025;-57
2024/03/12 04:55:24;;;;;;;5.03;1.90;;;10.40;93.30;;;;;;5051898;28;20029;-58
2024/03/12 04:57:50;;;;;;;4.47;1.63;;;10.40;93.30;;;;;;5051846;28;20423;-58
2024/03/12 05:00:18;;;;;;;4.57;1.63;;;10.40;93.30;;;;;;5053031;28;20040;-57
2024/03/12 05:02:45;;;;;;;8.07;1.50;;;10.40;93.30;;;;;;5035684;28;20031;-58
2024/03/12 05:05:13;;;;;;;3.58;1.42;;;10.40;93.70;;;;;;5051779;28;20067;-58
2024/03/12 05:07:39;;;;;;;4.18;1.15;;;10.40;93.40;;;;;;5052382;28;20025;-58
2024/03/12 05:10:06;;;;;;;5.63;1.42;;;10.30;93.30;;;;;;5051398;28;20056;-58
2024/03/12 05:12:31;;;;;;;4.55;1.48;;;10.40;93.40;;;;;;5051774;28;20040;-57
2024/03/12 05:14:57;;;;;;;5.60;1.15;;;10.40;93.40;;;;;;5051709;28;20390;-58
2024/03/12 05:17:22;;;;;;;6.82;1.60;;;10.40;93.40;;;;;;5069596;28;20021;-58
2024/03/12 05:19:48;;;;;;;3.80;1.30;;;10.40;93.40;;;;;;5051648;28;20032;-58
2024/03/12 05:22:14;;;;;;;3.40;2.00;;;10.30;93.30;;;;;;5069710;28;20033;-57
2024/03/12 05:24:40;;;;;;;3.17;1.35;;;10.30;93.30;;;;;;5051905;28;20392;-57
2024/03/12 05:27:06;;;;;;;6.50;1.50;;;10.30;93.30;;;;;;5052004;28;20029;-58
2024/03/12 05:29:42;;;;;;;5.07;1.33;;;10.30;93.30;;;;;;5051645;28;20174;-58
2024/03/12 05:32:21;;;;;;;3.78;1.35;;;10.30;93.30;;;;;;5052936;28;20060;-58
2024/03/12 05:34:58;;;;;;;4.45;1.85;;;10.30;93.30;;;;;;5069424;28;20041;-58
2024/03/12 05:37:40;;;;;;;3.60;1.20;;;10.30;93.30;;;;;;5068833;28;20029;-58
2024/03/12 05:40:18;;;;;;;3.95;1.00;;;10.30;93.30;;;;;;5069137;28;20048;-58
2024/03/12 05:48:15;;;;;;;10.85;2.00;;;10.30;93.30;;;;;;5053802;28;20031;-52
2024/03/12 05:50:41;;;;;;;13.48;2.40;;;10.30;93.30;;;;;;5050916;28;20088;-52
2024/03/12 05:53:07;;;;;;;8.75;2.15;;;10.30;93.30;;;;;;5050976;28;20021;-52
2024/03/12 05:55:33;;;;;;;14.05;2.03;;;10.30;93.30;;;;;;5050404;28;20175;-52
2024/03/12 05:57:58;;;;;;;6.40;1.90;;;10.30;93.30;;;;;;5067641;28;20024;-52
2024/03/12 06:00:24;;;;;;;9.57;1.80;;;10.20;93.30;;;;;;5050431;28;20061;-52
2024/03/12 06:02:50;;;;;;;7.15;2.22;;;10.30;93.30;;;;;;5068438;28;20025;-53
2024/03/12 06:05:16;;;;;;;5.85;1.95;;;10.30;93.30;;;;;;5068485;28;20033;-53
2024/03/12 06:07:42;;;;;;;8.77;2.10;;;10.20;93.30;;;;;;5068619;28;20468;-52
2024/03/12 06:10:08;;;;;;;15.52;2.70;;;10.20;93.40;;;;;;5050707;28;20144;-52
2024/03/12 06:12:34;;;;;;;16.27;2.42;;;10.20;93.40;;;;;;5068295;28;20029;-52
2024/03/12 06:14:59;;;;;;;13.13;2.20;;;10.20;93.40;;;;;;5050290;28;20063;-52
2024/03/12 06:17:25;;;;;;;8.38;2.38;;;10.20;93.40;;;;;;5050213;28;20029;-52
2024/03/12 06:19:51;;;;;;;7.93;2.55;;;10.30;93.40;;;;;;5034541;28;20037;-52
2024/03/12 06:22:17;;;;;;;18.83;2.67;;;10.30;93.40;;;;;;5050597;28;20032;-53
2024/03/12 06:24:43;;;;;;;14.65;2.85;;;10.20;93.40;;;;;;5050095;28;20064;-53
2024/03/12 06:27:09;;;;;;;15.35;2.38;;;10.20;93.40;;;;;;5050091;28;20051;-53
2024/03/12 06:29:34;;;;;;;12.75;2.78;;;10.30;93.50;;;;;;5050075;28;20033;-53
2024/03/12 06:32:00;;;;;;;15.75;3.20;;;10.20;93.50;;;;;;5049740;28;20555;-52
2024/03/12 06:34:28;;;;;;;17.58;2.78;;;10.20;93.50;;;;;;5067889;28;20025;-52
2024/03/12 06:36:57;;;;;;;18.60;3.50;;;10.20;93.50;;;;;;5050324;28;20025;-52
2024/03/12 06:39:32;;;;;;;38.67;6.00;;;10.30;93.60;;;;;;5067958;28;20039;-51
2024/03/12 06:42:01;;;;;;;31.75;5.25;;;10.30;93.60;;;;;;5067607;28;20082;-52
2024/03/12 06:44:27;;;;;;;35.53;5.07;;;10.20;93.70;;;;;;5049694;28;20043;-52
2024/03/12 06:46:54;;;;;;;34.42;5.00;;;10.20;93.80;;;;;;5067773;28;20054;-52
2024/03/12 06:49:24;;;;;;;28.08;4.72;;;10.20;93.90;;;;;;5067511;28;20045;-52
2024/03/12 06:51:50;;;;;;;31.92;5.47;;;10.20;94.00;;;;;;5050204;28;20036;-52
2024/03/12 06:54:16;;;;;;;31.20;4.63;;;10.20;93.90;;;;;;5050703;28;20391;-52
2024/03/12 06:56:46;;;;;;;34.63;5.30;;;10.20;93.90;;;;;;5049773;28;20029;-51
2024/03/12 06:59:15;;;;;;;33.50;4.80;;;10.20;93.90;;;;;;5067259;28;20166;-52
2024/03/12 07:01:41;;;;;;;38.65;5.32;;;10.20;93.90;;;;;;5049753;28;20044;-52
2024/03/12 07:04:10;;;;;;;31.80;5.05;;;10.20;93.90;;;;;;5032672;28;20483;-52
2024/03/12 07:06:36;;;;;;;21.70;4.85;;;10.20;93.90;;;;;;5067095;28;20052;-52
2024/03/12 07:09:08;;;;;;;30.83;4.97;;;10.20;94.00;;;;;;5048801;28;20115;-52
2024/03/12 07:11:39;;;;;;;25.08;4.55;;;10.20;94.00;;;;;;5050178;28;20029;-52
2024/03/12 07:14:12;;;;;;;29.95;4.28;;;10.20;94.00;;;;;;5050054;28;20429;-52
2024/03/12 07:16:44;;;;;;;25.17;4.70;;;10.20;94.10;;;;;;5050250;28;20029;-52
2024/03/12 07:19:10;;;;;;;23.08;4.63;;;10.20;94.10;;;;;;5067042;28;20037;-52
2024/03/12 07:21:38;;;;;;;30.38;5.22;;;10.20;94.20;;;;;;5049270;28;20025;-52
2024/03/12 07:24:07;;;;;;;18.83;4.65;;;10.20;94.20;;;;;;5049433;28;20050;-52
2024/03/12 07:26:33;;;;;;;32.70;4.93;;;10.30;94.20;;;;;;5049222;28;20603;-52
2024/03/12 07:29:01;;;;;;;26.02;4.78;;;10.20;94.20;;;;;;5049249;28;20089;-52
2024/03/12 07:31:27;;;;;;;28.48;4.28;;;10.20;94.30;;;;;;5049202;28;20388;-52
2024/03/12 07:33:55;;;;;;;30.73;4.90;;;10.20;94.30;;;;;;5048759;28;20056;-52
2024/03/12 07:36:21;;;;;;;33.55;5.07;;;10.20;94.30;;;;;;5066616;28;20096;-52
2024/03/12 07:38:47;;;;;;;20.10;4.28;;;10.20;94.30;;;;;;5063082;28;20044;-52
2024/03/12 07:41:14;;;;;;;30.77;5.30;;;10.20;94.40;;;;;;5065984;28;20036;-52
2024/03/12 07:43:40;;;;;;;19.77;4.75;;;10.20;94.40;;;;;;5048025;28;20204;-52
2024/03/12 07:46:07;;;;;;;22.10;5.00;;;10.20;94.40;;;;;;5048022;28;20024;-52
2024/03/12 07:48:33;;;;;;;29.83;4.90;;;10.20;94.40;;;;;;5065910;28;20029;-52
2024/03/12 07:50:59;;;;;;;16.50;4.13;;;10.20;94.40;;;;;;4999252;28;20493;-52
2024/03/12 07:53:29;;;;;;;37.85;5.10;;;10.20;94.50;;;;;;5031441;28;20048;-52
2024/03/12 07:56:00;;;;;;;23.65;3.72;;;10.20;94.50;;;;;;5049041;28;20051;-52
2024/03/12 07:58:28;;;;;;;32.95;5.47;;;10.20;94.50;;;;;;5062332;28;20022;-52
2024/03/12 08:00:58;;;;;;;28.52;4.63;;;10.20;94.50;;;;;;5028422;28;20037;-52
2024/03/12 08:03:24;;;;;;;32.55;5.75;;;10.20;94.50;;;;;;5031361;28;20017;-52
2024/03/12 08:05:50;;;;;;;32.30;5.38;;;10.30;94.60;;;;;;5055748;28;20102;-52
2024/03/12 08:08:15;;;;;;;37.83;5.07;;;10.20;94.50;;;;;;5064771;28;20473;-52
2024/03/12 08:10:41;;;;;;;37.05;5.28;;;10.30;94.60;;;;;;5031892;28;20051;-52
2024/03/12 08:13:07;;;;;;;34.33;4.95;;;10.20;94.60;;;;;;5028747;28;20057;-52
2024/03/12 08:15:34;;;;;;;32.17;4.03;;;10.20;94.60;;;;;;5048133;28;20028;-52
2024/03/12 08:18:02;;;;;;;36.97;5.63;;;10.30;94.70;;;;;;5064490;28;20033;-52
2024/03/12 08:20:28;;;;;;;40.03;5.65;;;10.30;94.70;;;;;;5064685;28;20475;-52
2024/03/12 08:22:53;;;;;;;39.17;5.80;;;10.30;94.70;;;;;;5047643;28;20041;-52
2024/03/12 08:25:20;;;;;;;40.88;5.75;;;10.30;94.70;;;;;;5060719;28;20142;-52
2024/03/12 08:27:47;;;;;;;33.97;5.80;;;10.30;94.70;;;;;;5065106;28;20036;-52
2024/03/12 08:30:13;;;;;;;35.00;6.05;;;10.30;94.70;;;;;;5046586;28;20052;-52
2024/03/12 08:32:41;;;;;;;61.45;6.80;;;10.30;94.70;;;;;;5047444;28;20029;-52
2024/03/12 08:35:08;;;;;;;51.53;6.82;;;10.30;94.80;;;;;;5047914;28;20021;-52
2024/03/12 08:37:34;;;;;;;44.80;7.38;;;10.30;94.80;;;;;;5029777;28;20544;-52
2024/03/12 08:40:00;;;;;;;76.30;8.00;;;10.30;94.80;;;;;;5047133;28;20052;-53
2024/03/12 08:42:26;;;;;;;44.90;6.82;;;10.40;94.90;;;;;;5046812;28;20029;-52
2024/03/12 08:44:54;;;;;;;73.35;7.45;;;10.40;94.80;;;;;;5047391;28;20036;-52
2024/03/12 08:47:20;;;;;;;59.92;8.95;;;10.40;94.90;;;;;;5032102;28;20037;-52
2024/03/12 08:49:46;;;;;;;52.60;6.70;;;10.40;94.90;;;;;;5044221;28;20021;-52
2024/03/12 08:52:11;;;;;;;38.33;6.47;;;10.40;94.80;;;;;;5064088;28;20044;-52
2024/03/12 08:54:37;;;;;;;37.72;5.35;;;10.40;94.80;;;;;;5047017;28;20021;-52
2024/03/12 08:57:03;;;;;;;49.70;7.20;;;10.40;94.70;;;;;;5047725;28;20025;-52
2024/03/12 08:59:29;;;;;;;63.45;8.80;;;10.40;94.70;;;;;;5065296;28;20033;-53
2024/03/12 09:01:57;;;;;;;34.80;5.65;;;10.50;94.70;;;;;;5030409;28;20173;-52
2024/03/12 09:04:23;;;;;;;47.35;6.80;;;10.50;94.70;;;;;;5046827;28;20044;-53
2024/03/12 09:06:49;;;;;;;46.15;5.72;;;10.40;94.60;;;;;;5065069;28;20061;-53
2024/03/12 09:09:16;;;;;;;52.67;5.97;;;10.50;94.70;;;;;;5032547;28;20083;-52
2024/03/12 09:11:42;;;;;;;48.85;6.82;;;10.50;94.70;;;;;;5061409;28;20037;-53
2024/03/12 09:14:07;;;;;;;92.18;10.18;;;10.50;94.70;;;;;;5028630;28;20025;-52
2024/03/12 09:16:34;;;;;;;66.80;9.73;;;10.50;94.70;;;;;;5064751;28;20029;-52
2024/03/12 09:19:00;;;;;;;75.53;8.38;;;10.50;94.70;;;;;;5030379;28;20025;-52
2024/03/12 09:21:27;;;;;;;93.43;11.07;;;10.50;94.70;;;;;;5064170;28;20044;-53
2024/03/12 09:23:53;;;;;;;71.40;9.55;;;10.50;94.70;;;;;;5063532;28;20024;-52
2024/03/12 09:26:19;;;;;;;87.38;9.15;;;10.60;94.70;;;;;;5065012;28;20060;-52
2024/03/12 09:28:45;;;;;;;68.68;8.20;;;10.60;94.70;;;;;;5029010;28;20084;-52
2024/03/12 09:31:10;;;;;;;55.70;8.32;;;10.70;94.70;;;;;;5026008;28;20044;-53
2024/03/12 09:33:36;;;;;;;153.07;19.15;;;10.70;94.70;;;;;;5032940;28;20017;-53
2024/03/12 09:36:03;;;;;;;187.50;15.95;;;10.70;94.70;;;;;;5050227;28;20036;-53
2024/03/12 09:38:29;;;;;;;87.05;12.05;;;10.70;94.60;;;;;;5048692;28;20063;-52
2024/03/12 09:40:59;;;;;;;88.57;10.60;;;10.70;94.70;;;;;;5033908;28;20029;-53
2024/03/12 09:43:31;;;;;;;99.45;10.50;;;10.80;94.70;;;;;;5022670;28;20033;-52
2024/03/12 09:45:56;;;;;;;238.88;24.83;;;10.80;94.80;;;;;;5049563;28;20048;-52
2024/03/12 09:48:22;;;;;;;140.98;15.82;;;10.80;94.90;;;;;;5033302;28;20029;-53
2024/03/12 09:50:51;;;;;;;87.53;10.80;;;10.90;94.90;;;;;;5033797;28;20029;-52
2024/03/12 09:53:17;;;;;;;85.00;9.85;;;10.90;94.90;;;;;;5033351;28;20025;-53
2024/03/12 09:55:44;;;;;;;83.93;11.50;;;10.90;94.90;;;;;;5032597;28;20040;-52
2024/03/12 09:58:10;;;;;;;70.93;9.15;;;11.00;94.80;;;;;;5047238;28;20379;-53
2024/03/12 10:00:36;;;;;;;70.28;8.77;;;10.90;94.80;;;;;;5047825;28;20032;-53
2024/03/12 10:03:03;;;;;;;56.65;9.82;;;10.90;94.60;;;;;;5065886;28;20126;-53
2024/03/12 10:05:29;;;;;;;84.50;8.43;;;11.00;94.60;;;;;;5048692;28;20035;-53
2024/03/12 10:08:13;;;;;;;88.43;9.95;;;11.00;94.60;;;;;;5066577;28;20116;-53
2024/03/12 10:10:43;;;;;;;75.35;9.18;;;11.00;94.70;;;;;;5050393;28;20510;-53
2024/03/12 10:13:14;;;;;;;67.78;8.63;;;11.00;94.70;;;;;;5067320;28;20040;-52
2024/03/12 10:15:58;;;;;;;96.05;10.65;;;11.10;94.60;;;;;;5034001;28;20033;-53
2024/03/12 10:18:26;;;;;;;73.50;9.68;;;11.10;94.60;;;;;;5067745;28;20025;-53
2024/03/12 10:21:01;;;;;;;95.95;12.52;;;11.10;94.80;;;;;;5067027;28;20025;-52
2024/03/12 10:23:33;;;;;;;85.78;10.65;;;11.10;94.80;;;;;;5051550;28;20084;-53
2024/03/12 10:26:18;;;;;;;65.88;8.32;;;11.10;94.70;;;;;;5033240;28;20044;-52
2024/03/12 10:28:45;;;;;;;62.45;8.40;;;11.10;94.60;;;;;;5043084;28;20027;-53
2024/03/12 10:31:11;;;;;;;85.53;9.75;;;11.10;94.60;;;;;;5047134;28;20036;-53
2024/03/12 10:33:50;;;;;;;74.35;10.25;;;11.10;94.60;;;;;;5057575;28;20123;-53
2024/03/12 10:36:28;;;;;;;100.13;10.48;;;11.20;94.70;;;;;;5057541;28;20033;-53
2024/03/12 10:38:54;;;;;;;79.80;10.25;;;11.10;95.00;;;;;;5069989;28;20032;-52
2024/03/12 10:41:20;;;;;;;77.53;10.32;;;11.20;94.90;;;;;;5061755;28;20475;-53
2024/03/12 10:43:47;;;;;;;79.60;9.23;;;11.20;94.80;;;;;;5055290;28;20083;-52
2024/03/12 10:46:16;;;;;;;67.82;9.40;;;11.20;94.60;;;;;;5029692;28;20041;-53
2024/03/12 10:48:42;;;;;;;72.10;9.23;;;11.30;94.90;;;;;;5032774;28;20037;-52
2024/03/12 10:51:12;;;;;;;72.32;9.60;;;11.30;94.60;;;;;;5033592;28;20064;-52
2024/03/12 10:53:38;;;;;;;81.25;10.40;;;11.30;94.60;;;;;;5050933;28;20037;-53
2024/03/12 10:56:05;;;;;;;91.20;10.20;;;11.40;94.60;;;;;;5022954;28;20033;-52
2024/03/12 10:58:32;;;;;;;67.57;9.70;;;11.40;94.60;;;;;;5039384;28;20529;-52
2024/03/12 11:00:59;;;;;;;55.97;8.35;;;11.40;94.50;;;;;;5032964;28;20484;-53
2024/03/12 11:03:24;;;;;;;90.07;9.05;;;11.40;94.50;;;;;;5043766;28;20031;-53
2024/03/12 11:05:54;;;;;;;72.22;8.80;;;11.50;94.60;;;;;;5047413;28;20045;-53
2024/03/12 11:08:19;;;;;;;56.15;7.65;;;11.50;94.70;;;;;;5035271;28;20751;-52
2024/03/12 11:10:46;;;;;;;62.42;8.43;;;11.50;94.40;;;;;;5042542;28;20036;-52
2024/03/12 11:13:13;;;;;;;32.58;5.55;;;11.50;94.40;;;;;;5033496;28;20017;-53
2024/03/12 11:15:40;;;;;;;38.83;5.97;;;11.50;94.30;;;;;;5031797;28;20047;-53
2024/03/12 11:18:06;;;;;;;58.22;7.03;;;11.50;94.30;;;;;;5034177;28;20044;-52
2024/03/12 11:20:33;;;;;;;68.90;8.18;;;11.50;94.20;;;;;;5040231;28;20033;-52
2024/03/12 11:23:00;;;;;;;47.47;6.95;;;11.60;94.20;;;;;;5062511;28;20102;-52
2024/03/12 11:25:27;;;;;;;53.05;7.00;;;11.60;94.20;;;;;;5013757;28;20025;-53
2024/03/12 11:28:15;;;;;;;49.05;7.82;;;11.60;94.30;;;;;;5026865;28;20506;-52
2024/03/12 11:30:43;;;;;;;56.10;7.43;;;11.60;94.20;;;;;;5067095;28;20073;-53
2024/03/12 11:33:11;;;;;;;77.70;9.30;;;11.60;94.10;;;;;;5043905;28;20044;-52
2024/03/12 11:35:37;;;;;;;61.13;7.60;;;11.70;94.10;;;;;;5027890;28;20025;-53
2024/03/12 11:38:04;;;;;;;75.72;6.88;;;11.70;94.10;;;;;;5029616;28;20087;-52
2024/03/12 11:40:41;;;;;;;66.65;9.32;;;11.70;94.10;;;;;;5046585;28;20032;-52
2024/03/12 11:43:16;;;;;;;53.35;7.35;;;11.70;94.10;;;;;;5045012;28;20036;-52
2024/03/12 11:45:46;;;;;;;32.90;6.13;;;11.80;94.10;;;;;;5044923;28;20036;-52
2024/03/12 11:48:17;;;;;;;55.17;6.63;;;11.80;94.10;;;;;;5047957;28;20490;-52
2024/03/12 11:50:44;;;;;;;59.30;6.07;;;11.80;94.00;;;;;;5029369;28;20044;-52
2024/03/12 11:53:21;;;;;;;43.80;5.93;;;11.80;93.90;;;;;;5014495;28;20021;-53
2024/03/12 11:56:06;;;;;;;39.92;5.10;;;11.80;93.90;;;;;;5028035;28;20025;-52
2024/03/12 11:58:47;;;;;;;36.95;5.03;;;11.80;93.80;;;;;;5030627;28;20017;-52
2024/03/12 12:01:34;;;;;;;42.15;5.05;;;11.80;93.60;;;;;;5065806;28;20036;-53
2024/03/12 12:04:10;;;;;;;25.92;5.05;;;11.90;93.60;;;;;;5047699;28;20415;-53
2024/03/12 12:06:36;;;;;;;30.85;5.32;;;11.90;93.60;;;;;;5045905;28;20086;-52
2024/03/12 12:09:06;;;;;;;30.33;4.68;;;11.90;93.50;;;;;;5046969;28;20029;-53
2024/03/12 12:11:34;;;;;;;28.85;4.72;;;11.90;93.50;;;;;;5065417;28;20037;-52
2024/03/12 12:14:00;;;;;;;21.77;4.28;;;11.90;93.40;;;;;;5057775;28;20028;-53
2024/03/12 12:16:27;;;;;;;33.22;4.82;;;11.90;93.30;;;;;;5019341;28;20037;-52
2024/03/12 12:18:53;;;;;;;38.30;5.72;;;11.90;93.30;;;;;;5052643;28;20486;-52
2024/03/12 12:21:20;;;;;;;33.80;5.10;;;12.00;93.30;;;;;;5028808;28;20028;-52
2024/03/12 12:23:49;;;;;;;40.50;6.15;;;12.00;93.20;;;;;;5039078;28;20052;-53
2024/03/12 12:26:20;;;;;;;35.72;4.65;;;12.00;93.20;;;;;;4996234;28;20036;-52
2024/03/12 12:28:46;;;;;;;27.60;4.93;;;12.10;93.00;;;;;;5023782;28;20036;-53
2024/03/12 12:31:16;;;;;;;30.80;5.55;;;12.10;93.00;;;;;;5052865;28;20021;-52
2024/03/12 12:33:44;;;;;;;41.15;4.78;;;12.20;92.90;;;;;;5043246;28;20031;-52
2024/03/12 12:36:12;;;;;;;39.60;6.05;;;12.20;92.80;;;;;;5061027;28;20025;-52
2024/03/12 12:38:38;;;;;;;33.20;5.82;;;12.20;92.70;;;;;;5032090;28;20029;-52
2024/03/12 12:41:06;;;;;;;40.30;6.30;;;12.20;92.70;;;;;;5024482;28;20045;-53
2024/03/12 12:43:32;;;;;;;43.88;6.30;;;12.30;92.70;;;;;;5027891;28;20033;-52
2024/03/12 12:45:59;;;;;;;50.05;6.22;;;12.30;92.60;;;;;;5046740;28;20032;-53